Latest Weather Observations for Rosslyn Bay Harbour

IDQ60801

Issued at 8:02 pm EST Tuesday 28 March 2017 (issued every 30 minutes, with the page automatically refreshed every 10 minutes)

About weather observations | Map of weather stations | Latest weather observations for QLD | Other Formats
Station Details ID: 033208 Name: ROSSLYN BAY NTC AWS Lat: -23.16 Lon: 150.79 Height: 0.0 m
Data from the previous 72 hours. | See also: Recent months for locations in Queensland
Date/Time
EST
Temp
°C
App
Temp
°C
Dew
Point
°C
Rel
Hum
%
Delta-T
°C
Wind Press
QNH
hPa
Press
MSL
hPa
Rain since
9am
mm
Dir  Spd
km/h
Gust
km/h
Spd
kts
Gust
kts
28/07:30pm 27.1 - - - - SW 11 26 6 14 1007.7 1007.7 -
28/07:00pm 28.0 - - - - SW 11 28 6 15 1007.5 1007.5 -
28/06:30pm 28.0 - - - - SW 11 26 6 14 1007.0 1007.0 -
28/06:00pm 27.9 - - - - WSW 9 28 5 15 1006.7 1006.7 -
28/05:30pm 28.1 - - - - WSW 11 30 6 16 1006.7 1006.7 -
28/05:00pm 27.7 - - - - WSW 9 20 5 11 1006.5 1006.5 -
28/04:30pm 27.8 - - - - SW 9 24 5 13 1006.3 1006.3 -
28/04:00pm 27.7 - - - - SW 11 32 6 17 1006.2 1006.2 -
28/03:30pm 27.9 - - - - WSW 13 33 7 18 1006.0 1006.0 -
28/03:00pm 27.9 - - - - W 11 28 6 15 1006.1 1006.1 -
28/02:30pm 27.9 - - - - WSW 11 32 6 17 1005.9 1005.9 -
28/02:00pm 27.1 - - - - SW 11 26 6 14 1006.1 1006.1 -
28/01:30pm 27.4 - - - - SSW 13 28 7 15 1006.4 1006.4 -
28/01:00pm 27.1 - - - - S 17 28 9 15 1006.8 1006.8 -
28/12:30pm 27.6 - - - - SSW 11 22 6 12 1007.5 1007.5 -
28/12:00pm 26.9 - - - - S 11 26 6 14 1007.9 1007.9 -
28/11:30am 25.9 - - - - S 15 33 8 18 1008.4 1008.4 -
28/11:00am 26.3 - - - - WSW 11 32 6 17 1008.5 1008.5 -
28/10:30am 24.9 - - - - ENE 15 50 8 27 1008.8 1008.8 -
28/10:00am 26.0 - - - - ENE 15 39 8 21 1008.8 1008.8 -
28/09:30am 26.5 - - - - W 9 24 5 13 1009.0 1009.0 -
28/09:00am 25.7 - - - - SSW 17 35 9 19 1009.0 1009.0 -
28/08:30am 25.6 - - - - S 15 32 8 17 1008.7 1008.7 -
28/08:00am 24.5 - - - - WSW 13 32 7 17 1008.4 1008.4 -
28/07:30am 24.4 - - - - NNE 7 20 4 11 1008.1 1008.1 -
28/07:00am 24.2 - - - - WSW 9 32 5 17 1007.8 1007.8 -
28/06:30am 27.2 - - - - S 20 35 11 19 1007.4 1007.4 -
28/06:00am 27.2 - - - - S 17 32 9 17 1007.1 1007.1 -
28/05:30am 26.6 - - - - S 17 37 9 20 1006.8 1006.8 -
28/05:00am 27.3 - - - - S 22 43 12 23 1006.6 1006.6 -
28/04:30am 27.1 - - - - S 20 33 11 18 1006.5 1006.5 -
28/04:00am 27.1 - - - - S 22 35 12 19 1006.4 1006.4 -
28/03:30am 26.8 - - - - S 15 28 8 15 1006.5 1006.5 -
28/03:00am 26.1 - - - - S 26 43 14 23 1006.6 1006.6 -
28/02:30am 27.3 - - - - S 26 39 14 21 1006.8 1006.8 -
28/02:00am 27.4 - - - - S 20 32 11 17 1007.1 1007.1 -
28/01:30am 27.0 - - - - S 20 43 11 23 1007.2 1007.2 -
28/01:00am 26.2 - - - - S 24 50 13 27 1007.7 1007.7 -
28/12:30am 26.2 - - - - S 28 44 15 24 1007.9 1007.9 -
28/12:00am 26.5 - - - - S 28 46 15 25 1008.2 1008.2 -
 
Date/Time
EST
Temp
°C
App
Temp
°C
Dew
Point
°C
Rel
Hum
%
Delta-T
°C
Wind Press
QNH
hPa
Press
MSL
hPa
Rain since
9am
mm
Dir  Spd
km/h
Gust
km/h
Spd
kts
Gust
kts
27/11:45pm 26.3 - - - - S 28 52 15 28 1008.4 1008.4 -
27/11:30pm 26.3 - - - - S 28 43 15 23 1008.5 1008.5 -
27/11:04pm 26.1 - - - - S 28 46 15 25 1008.8 1008.8 -
27/11:00pm 26.0 - - - - S 28 46 15 25 1008.9 1008.9 -
27/10:36pm 25.8 - - - - S 30 48 16 26 1009.0 1009.0 -
27/10:30pm 25.9 - - - - S 32 46 17 25 1009.2 1009.2 -
27/10:00pm 25.7 - - - - S 28 54 15 29 1009.1 1009.1 -
27/09:47pm 25.9 - - - - S 28 52 15 28 1009.1 1009.1 -
27/09:30pm 25.2 - - - - S 20 43 11 23 1008.8 1008.8 -
27/09:00pm 25.4 - - - - S 24 48 13 26 1009.3 1009.3 -
27/08:30pm 25.6 - - - - S 19 43 10 23 1009.1 1009.1 -
27/08:00pm 25.2 - - - - S 22 50 12 27 1009.1 1009.1 -
27/07:30pm 25.3 - - - - S 20 46 11 25 1009.0 1009.0 -
27/07:00pm 25.8 - - - - S 30 54 16 29 1008.4 1008.4 -
27/06:34pm 25.9 - - - - S 28 48 15 26 1008.2 1008.2 -
27/06:30pm 25.9 - - - - S 26 46 14 25 1008.2 1008.2 -
27/06:00pm 25.8 - - - - S 28 50 15 27 1007.9 1007.9 -
27/05:50pm 25.8 - - - - S 28 54 15 29 1007.9 1007.9 -
27/05:30pm 26.0 - - - - S 24 44 13 24 1007.7 1007.7 -
27/05:00pm 25.8 - - - - S 24 43 13 23 1007.6 1007.6 -
27/04:30pm 25.3 - - - - S 22 37 12 20 1007.5 1007.5 -
27/04:00pm 25.5 - - - - S 20 33 11 18 1007.3 1007.3 -
27/03:30pm 24.4 - - - - S 22 39 12 21 1007.2 1007.2 -
27/03:00pm 26.6 - - - - S 30 57 16 31 1006.9 1006.9 -
27/02:42pm 26.6 - - - - S 28 52 15 28 1007.0 1007.0 -
27/02:30pm 26.1 - - - - S 26 56 14 30 1007.2 1007.2 -
27/02:00pm 27.0 - - - - S 22 37 12 20 1007.5 1007.5 -
27/01:30pm 25.1 - - - - S 24 39 13 21 1007.5 1007.5 -
27/01:00pm 27.5 - - - - S 26 41 14 22 1008.0 1008.0 -
27/12:30pm 27.4 - - - - S 24 37 13 20 1008.4 1008.4 -
27/12:00pm 26.5 - - - - S 22 39 12 21 1008.9 1008.9 -
27/11:30am 27.5 - - - - S 20 35 11 19 1009.4 1009.4 -
27/11:00am 26.6 - - - - S 15 35 8 19 1009.8 1009.8 -
27/10:30am 27.6 - - - - S 26 41 14 22 1010.0 1010.0 -
27/10:00am 27.2 - - - - S 28 43 15 23 1010.1 1010.1 -
27/09:30am 27.5 - - - - S 28 39 15 21 1010.1 1010.1 -
27/09:00am 27.6 - - - - SSW 13 28 7 15 1010.2 1010.2 -
27/08:30am 27.9 - - - - S 26 41 14 22 1010.0 1010.0 -
27/08:00am 27.7 - - - - S 30 44 16 24 1009.8 1009.8 -
27/07:46am 27.7 - - - - S 28 48 15 26 1009.7 1009.7 -
27/07:30am 27.5 - - - - S 26 39 14 21 1009.6 1009.6 -
27/07:00am 27.3 - - - - S 26 41 14 22 1009.1 1009.1 -
27/06:30am 27.1 - - - - S 22 32 12 17 1009.1 1009.1 -
27/06:00am 27.6 - - - - S 17 35 9 19 1008.7 1008.7 -
27/05:30am 27.7 - - - - S 19 35 10 19 1008.7 1008.7 -
27/05:00am 27.6 - - - - S 24 39 13 21 1008.4 1008.4 -
27/04:30am 27.5 - - - - S 24 37 13 20 1008.3 1008.3 -
27/04:00am 27.6 - - - - S 26 39 14 21 1008.1 1008.1 -
27/03:30am 27.4 - - - - S 22 39 12 21 1008.4 1008.4 -
27/03:00am 27.3 - - - - S 22 39 12 21 1008.6 1008.6 -
27/02:30am 27.1 - - - - SSW 20 37 11 20 1008.8 1008.8 -
27/02:00am 27.3 - - - - S 24 43 13 23 1009.0 1009.0 -
27/01:30am 26.8 - - - - S 19 33 10 18 1009.7 1009.7 -
27/01:00am 26.2 - - - - S 20 41 11 22 1010.3 1010.3 -
27/12:30am 25.9 - - - - S 24 48 13 26 1010.6 1010.6 -
27/12:00am 25.6 - - - - S 26 46 14 25 1010.9 1010.9 -
 
Date/Time
EST
Temp
°C
App
Temp
°C
Dew
Point
°C
Rel
Hum
%
Delta-T
°C
Wind Press
QNH
hPa
Press
MSL
hPa
Rain since
9am
mm
Dir  Spd
km/h
Gust
km/h
Spd
kts
Gust
kts
26/11:30pm 24.4 - - - - SSW 20 43 11 23 1010.7 1010.7 -
26/11:00pm 26.4 - - - - S 22 48 12 26 1011.1 1011.1 -
26/10:30pm 26.6 - - - - S 19 44 10 24 1011.4 1011.4 -
26/10:00pm 27.1 - - - - S 26 41 14 22 1011.5 1011.5 -
26/09:30pm 26.9 - - - - S 22 35 12 19 1011.4 1011.4 -
26/09:20pm 26.0 - - - - S 28 48 15 26 1011.3 1011.3 -
26/09:00pm 27.8 - - - - S 28 43 15 23 1011.5 1011.5 -
26/08:30pm 27.7 - - - - S 26 44 14 24 1011.3 1011.3 -
26/08:11pm 27.7 - - - - S 28 46 15 25 1010.9 1010.9 -
26/08:00pm 27.7 - - - - S 28 44 15 24 1010.7 1010.7 -
26/07:30pm 27.4 - - - - S 22 43 12 23 1010.3 1010.3 -
26/07:00pm 27.4 - - - - S 28 46 15 25 1009.9 1009.9 -
26/06:30pm 27.4 - - - - S 22 46 12 25 1009.9 1009.9 -
26/06:16pm 27.4 - - - - S 28 54 15 29 1009.8 1009.8 -
26/06:00pm 27.4 - - - - S 24 44 13 24 1009.7 1009.7 -
26/05:30pm 27.5 - - - - S 26 54 14 29 1009.4 1009.4 -
26/05:04pm 27.6 - - - - S 28 50 15 27 1009.0 1009.0 -
26/05:00pm 27.5 - - - - S 26 48 14 26 1009.0 1009.0 -
26/04:49pm 27.6 - - - - S 28 56 15 30 1008.9 1008.9 -
26/04:30pm 27.6 - - - - S 22 50 12 27 1008.7 1008.7 -
26/04:00pm 27.7 - - - - S 26 43 14 23 1008.7 1008.7 -
26/03:30pm 27.8 - - - - S 22 43 12 23 1008.9 1008.9 -
26/03:00pm 27.7 - - - - S 20 44 11 24 1008.9 1008.9 -
26/02:30pm 27.8 - - - - S 22 50 12 27 1008.9 1008.9 -
26/02:00pm 28.0 - - - - S 22 43 12 23 1009.2 1009.2 -
26/01:30pm 27.8 - - - - S 20 37 11 20 1009.4 1009.4 -
26/01:00pm 27.5 - - - - S 24 43 13 23 1009.7 1009.7 -
26/12:30pm 27.6 - - - - S 22 39 12 21 1010.1 1010.1 -
26/12:00pm 27.4 - - - - S 22 41 12 22 1010.3 1010.3 -
26/11:30am 27.6 - - - - S 24 41 13 22 1010.9 1010.9 -
26/11:00am 27.5 - - - - S 22 37 12 20 1011.2 1011.2 -
26/10:30am 27.2 - - - - S 22 39 12 21 1011.6 1011.6 -
26/10:00am 27.9 - - - - S 20 37 11 20 1011.6 1011.6 -
26/09:30am 27.1 - - - - S 20 35 11 19 1011.6 1011.6 -
26/09:00am 26.5 - - - - S 19 37 10 20 1012.0 1012.0 -
26/08:30am 26.0 - - - - SSE 17 35 9 19 1011.8 1011.8 -
26/08:00am 25.9 - - - - S 13 33 7 18 1011.7 1011.7 -
26/07:30am 25.9 - - - - S 13 26 7 14 1011.3 1011.3 -
26/07:00am 25.5 - - - - S 13 26 7 14 1011.0 1011.0 -
26/06:30am 25.6 - - - - S 11 26 6 14 1010.7 1010.7 -
26/06:00am 25.8 - - - - S 19 35 10 19 1010.6 1010.6 -
26/05:30am 25.6 - - - - S 13 24 7 13 1010.3 1010.3 -
26/05:00am 25.7 - - - - S 17 33 9 18 1009.9 1009.9 -
26/04:30am 26.1 - - - - S 20 33 11 18 1009.7 1009.7 -
26/04:00am 25.3 - - - - S 15 33 8 18 1009.4 1009.4 -
26/03:30am 24.9 - - - - S 15 28 8 15 1009.4 1009.4 -
26/03:00am 25.4 - - - - S 13 32 7 17 1009.5 1009.5 -
26/02:30am 25.6 - - - - S 17 30 9 16 1009.8 1009.8 -
26/02:00am 25.7 - - - - S 19 35 10 19 1010.2 1010.2 -
26/01:30am 25.9 - - - - S 24 46 13 25 1010.8 1010.8 -
26/01:00am 25.4 - - - - S 20 37 11 20 1011.2 1011.2 -
26/12:30am 25.2 - - - - S 19 39 10 21 1011.5 1011.5 -
26/12:00am 26.1 - - - - S 19 37 10 20 1011.7 1011.7 -
 
Date/Time
EST
Temp
°C
App
Temp
°C
Dew
Point
°C
Rel
Hum
%
Delta-T
°C
Wind Press
QNH
hPa
Press
MSL
hPa
Rain since
9am
mm
Dir  Spd
km/h
Gust
km/h
Spd
kts
Gust
kts
25/11:30pm 26.7 - - - - S 22 35 12 19 1012.1 1012.1 -
25/11:00pm 26.6 - - - - S 20 39 11 21 1012.3 1012.3 -
25/10:30pm 27.5 - - - - S 22 41 12 22 1012.2 1012.2 -
25/10:00pm 27.4 - - - - S 20 39 11 21 1012.3 1012.3 -
25/09:30pm 27.5 - - - - S 20 35 11 19 1012.2 1012.2 -
25/09:00pm 27.5 - - - - S 22 37 12 20 1012.3 1012.3 -
25/08:30pm 27.5 - - - - S 22 37 12 20 1012.1 1012.1 -

Other Formats:

Comma delimited format used in spreadsheet applications
http://www.bom.gov.au/fwo/IDQ60801/IDQ60801.95298.axf

JavaScript Object Notation format (JSON) in row-major order
http://www.bom.gov.au/fwo/IDQ60801/IDQ60801.95298.json